createdAt,value
2023-08-17T00:00:04.771Z,12.60
2023-08-17T00:01:08.590Z,9.27
2023-08-17T00:02:11.684Z,10.48
2023-08-17T00:03:14.981Z,7.38
2023-08-17T00:04:18.327Z,8.18
2023-08-17T00:05:21.432Z,8.55
2023-08-17T00:06:24.342Z,9.95
2023-08-17T00:07:27.331Z,6.22
2023-08-17T00:08:30.496Z,10.35
2023-08-17T00:09:33.954Z,6.32
2023-08-17T00:10:37.039Z,8.63
2023-08-17T00:11:40.190Z,9.02
2023-08-17T00:12:43.117Z,11.18
2023-08-17T00:13:45.958Z,7.07
2023-08-17T00:14:49.145Z,8.50
2023-08-17T00:15:52.015Z,8.60
2023-08-17T00:16:54.893Z,11.25
2023-08-17T00:17:57.950Z,5.78
2023-08-17T00:19:00.877Z,9.80
2023-08-17T00:20:06.831Z,8.48
2023-08-17T00:21:09.862Z,9.52
2023-08-17T00:22:12.906Z,7.10
2023-08-17T00:23:15.900Z,9.15
2023-08-17T00:24:18.847Z,8.75
2023-08-17T00:25:21.757Z,6.60
2023-08-17T00:26:24.639Z,9.40
2023-08-17T00:27:27.873Z,11.40
2023-08-17T00:28:30.862Z,8.77
2023-08-17T00:29:34.108Z,13.32
2023-08-17T00:30:40.233Z,5.93
2023-08-17T00:31:43.497Z,7.38
2023-08-17T00:32:46.451Z,9.27
2023-08-17T00:33:49.455Z,9.18
2023-08-17T00:34:52.680Z,12.30
2023-08-17T00:35:55.663Z,9.52
2023-08-17T00:36:58.712Z,12.30
2023-08-17T00:38:01.812Z,9.63
2023-08-17T00:39:05.294Z,11.40
2023-08-17T00:40:08.957Z,8.93
2023-08-17T00:41:11.923Z,8.38
2023-08-17T00:42:14.803Z,9.75
2023-08-17T00:43:18.840Z,8.43
2023-08-17T00:44:21.781Z,9.60
2023-08-17T00:45:25.256Z,7.97
2023-08-17T00:46:29.229Z,7.57
2023-08-17T00:47:33.021Z,8.88
2023-08-17T00:48:35.879Z,9.40
2023-08-17T00:49:38.881Z,9.68
2023-08-17T00:50:41.965Z,12.23
2023-08-17T00:51:44.814Z,9.15
2023-08-17T00:52:47.906Z,6.90
2023-08-17T00:53:54.968Z,7.95
2023-08-17T00:54:58.673Z,8.82
2023-08-17T00:56:02.578Z,7.90
2023-08-17T00:57:08.284Z,10.80
2023-08-17T00:58:11.243Z,7.32
2023-08-17T00:59:14.280Z,11.77
2023-08-17T01:00:19.777Z,9.35
2023-08-17T01:01:23.274Z,8.68
2023-08-17T01:02:26.645Z,11.50
2023-08-17T01:03:31.013Z,8.70
2023-08-17T01:04:34.091Z,7.75
2023-08-17T01:05:37.989Z,4.57
2023-08-17T01:06:40.928Z,7.07
2023-08-17T01:07:43.788Z,9.02
2023-08-17T01:08:46.778Z,9.23
2023-08-17T01:09:49.705Z,7.50
2023-08-17T01:11:27.333Z,8.18
2023-08-17T01:12:35.157Z,10.10
2023-08-17T01:13:49.498Z,8.07
2023-08-17T01:15:11.054Z,7.80
2023-08-17T01:16:16.245Z,13.23
2023-08-17T01:17:28.639Z,8.05
2023-08-17T01:18:33.163Z,8.43
2023-08-17T01:19:38.956Z,8.18
2023-08-17T01:20:41.791Z,9.38
2023-08-17T01:21:49.214Z,9.18
2023-08-17T01:22:53.470Z,10.52
2023-08-17T01:24:00.691Z,8.98
2023-08-17T01:25:03.999Z,7.25
2023-08-17T01:26:06.960Z,10.45
2023-08-17T01:27:09.939Z,7.07
2023-08-17T01:28:13.238Z,7.60
2023-08-17T01:29:16.437Z,9.88
2023-08-17T01:30:19.860Z,12.18
2023-08-17T01:31:26.014Z,11.13
2023-08-17T01:32:32.245Z,12.43
2023-08-17T01:33:56.612Z,7.03
2023-08-17T01:35:03.583Z,15.05
2023-08-17T01:36:15.039Z,10.30
2023-08-17T01:37:19.804Z,8.02
2023-08-17T01:38:24.220Z,9.65
2023-08-17T01:39:33.097Z,8.68
2023-08-17T01:40:36.373Z,9.15
2023-08-17T01:41:40.018Z,14.05
2023-08-17T01:42:44.139Z,8.70
2023-08-17T01:43:48.730Z,9.35
2023-08-17T01:44:52.174Z,9.32
2023-08-17T01:45:55.108Z,7.13
2023-08-17T01:46:58.261Z,8.48
2023-08-17T01:48:01.300Z,6.85
2023-08-17T01:49:04.308Z,11.10
2023-08-17T01:50:07.494Z,8.40
2023-08-17T01:51:13.117Z,7.75
2023-08-17T01:52:16.089Z,14.07
2023-08-17T01:53:18.950Z,10.35
2023-08-17T01:54:22.063Z,12.85
2023-08-17T01:55:26.034Z,8.40
2023-08-17T01:56:28.851Z,8.30
2023-08-17T01:57:31.842Z,9.90
2023-08-17T01:58:34.857Z,15.95
2023-08-17T01:59:37.951Z,13.27
2023-08-17T02:00:41.171Z,6.45
2023-08-17T02:01:44.075Z,5.53
2023-08-17T02:02:47.068Z,8.23
2023-08-17T02:03:50.108Z,10.45
2023-08-17T02:04:53.021Z,9.82
2023-08-17T02:05:57.236Z,9.10
2023-08-17T02:07:00.187Z,9.52
2023-08-17T02:08:03.115Z,10.00
2023-08-17T02:09:06.174Z,12.75
2023-08-17T02:10:09.501Z,10.77
2023-08-17T02:11:12.534Z,11.38
2023-08-17T02:12:15.520Z,11.35
2023-08-17T02:13:20.525Z,9.88
2023-08-17T02:14:23.409Z,7.85
2023-08-17T02:15:26.603Z,7.60
2023-08-17T02:16:29.645Z,7.68
2023-08-17T02:17:32.529Z,10.98
2023-08-17T02:18:36.497Z,8.25
2023-08-17T02:19:39.884Z,6.88
2023-08-17T02:20:42.816Z,8.70
2023-08-17T02:21:48.119Z,9.90
2023-08-17T02:22:51.105Z,9.75
2023-08-17T02:23:53.943Z,8.27
2023-08-17T02:24:59.992Z,13.23
2023-08-17T02:26:03.004Z,10.70
2023-08-17T02:27:08.756Z,12.23
2023-08-17T02:28:11.776Z,7.28
2023-08-17T02:29:14.756Z,9.70
2023-08-17T02:30:17.669Z,10.63
2023-08-17T02:31:20.562Z,9.35
2023-08-17T02:32:23.619Z,7.97
2023-08-17T02:33:26.466Z,7.70
2023-08-17T02:34:29.364Z,9.80
2023-08-17T02:35:32.451Z,7.15
2023-08-17T02:36:36.405Z,7.72
2023-08-17T02:37:39.516Z,9.25
2023-08-17T02:38:42.639Z,12.88
2023-08-17T02:39:45.643Z,10.90
2023-08-17T02:40:50.888Z,14.50
2023-08-17T02:41:53.919Z,11.38
2023-08-17T02:42:56.801Z,8.60
2023-08-17T02:43:59.884Z,10.80
2023-08-17T02:45:02.862Z,8.70
2023-08-17T02:46:08.874Z,9.38
2023-08-17T02:47:13.762Z,13.02
2023-08-17T02:48:16.787Z,10.02
2023-08-17T02:49:20.292Z,7.07
2023-08-17T02:50:23.215Z,13.20
2023-08-17T02:51:26.253Z,10.95
2023-08-17T02:52:29.164Z,10.88
2023-08-17T02:53:32.077Z,7.05
2023-08-17T02:54:35.266Z,10.07
2023-08-17T02:55:38.222Z,8.05
2023-08-17T02:56:41.128Z,9.05
2023-08-17T02:57:44.130Z,10.85
2023-08-17T02:58:47.122Z,11.43
2023-08-17T02:59:50.016Z,7.53
2023-08-17T03:00:53.733Z,10.57
2023-08-17T03:03:00.804Z,10.40
2023-08-17T03:04:04.011Z,10.80
2023-08-17T03:05:07.188Z,8.23
2023-08-17T03:06:10.191Z,7.03
2023-08-17T03:07:16.189Z,7.78
2023-08-17T03:08:19.185Z,9.02
2023-08-17T03:09:22.094Z,10.18
2023-08-17T03:10:26.679Z,6.95
2023-08-17T03:11:29.647Z,10.65
2023-08-17T03:12:32.651Z,12.35
2023-08-17T03:13:35.708Z,7.75
2023-08-17T03:14:38.578Z,11.57
2023-08-17T03:15:41.684Z,10.70
2023-08-17T03:16:45.525Z,4.97
2023-08-17T03:17:48.548Z,7.60
2023-08-17T03:18:51.534Z,9.23
2023-08-17T03:19:54.852Z,6.38
2023-08-17T03:20:58.084Z,15.68
2023-08-17T03:22:01.626Z,11.30
2023-08-17T03:23:07.938Z,11.70
2023-08-17T03:24:11.609Z,8.23
2023-08-17T03:25:14.771Z,4.90
2023-08-17T03:26:19.124Z,11.93
2023-08-17T03:27:22.092Z,9.65
2023-08-17T03:28:26.260Z,8.98
2023-08-17T03:29:29.551Z,14.25
2023-08-17T03:30:32.761Z,7.30
2023-08-17T03:31:35.748Z,11.00
2023-08-17T03:32:38.979Z,12.07
2023-08-17T03:33:42.316Z,7.93
2023-08-17T03:34:45.525Z,5.70
2023-08-17T03:35:48.943Z,7.85
2023-08-17T03:36:52.059Z,11.45
2023-08-17T03:37:54.929Z,9.70
2023-08-17T03:38:57.958Z,10.07
2023-08-17T03:40:02.274Z,6.80
2023-08-17T03:41:07.968Z,10.00
2023-08-17T03:42:11.384Z,6.97
2023-08-17T03:43:14.248Z,6.95
2023-08-17T03:44:17.671Z,7.50
2023-08-17T03:45:20.685Z,11.52
2023-08-17T03:46:26.013Z,9.43
2023-08-17T03:47:29.231Z,7.28
2023-08-17T03:48:32.439Z,5.88
2023-08-17T03:49:35.395Z,5.97
2023-08-17T03:50:38.352Z,10.25
2023-08-17T03:51:41.947Z,11.00
2023-08-17T03:52:44.939Z,6.93
2023-08-17T03:53:47.922Z,9.50
2023-08-17T03:54:51.264Z,11.70
2023-08-17T03:55:54.348Z,6.38
2023-08-17T03:56:57.320Z,10.32
2023-08-17T03:58:00.290Z,9.52
2023-08-17T03:59:03.224Z,12.40
2023-08-17T04:00:07.781Z,7.43
2023-08-17T04:01:21.835Z,11.18
2023-08-17T04:02:24.869Z,9.30
2023-08-17T04:03:27.761Z,7.07
2023-08-17T04:04:30.895Z,6.05
2023-08-17T04:05:34.604Z,14.32
2023-08-17T04:06:37.962Z,8.35
2023-08-17T04:07:40.924Z,8.27
2023-08-17T04:08:43.941Z,11.90
2023-08-17T04:09:47.416Z,8.57
2023-08-17T04:10:50.385Z,8.50
2023-08-17T04:11:53.280Z,9.20
2023-08-17T04:12:56.151Z,5.63
2023-08-17T04:13:59.070Z,6.95
2023-08-17T04:15:02.113Z,8.23
2023-08-17T04:16:05.586Z,9.45
2023-08-17T04:17:08.851Z,8.98
2023-08-17T04:18:11.928Z,9.98
2023-08-17T04:19:15.500Z,10.95
2023-08-17T04:20:20.264Z,9.02
2023-08-17T04:21:23.431Z,10.55
2023-08-17T04:22:26.541Z,10.20
2023-08-17T04:24:32.728Z,10.40
2023-08-17T04:25:36.390Z,8.48
2023-08-17T04:26:40.339Z,11.07
2023-08-17T04:27:43.470Z,8.90
2023-08-17T04:28:46.500Z,6.22
2023-08-17T04:29:50.741Z,10.35
2023-08-17T04:30:53.804Z,7.05
2023-08-17T04:31:57.021Z,9.07
2023-08-17T04:33:00.273Z,9.23
2023-08-17T04:34:03.319Z,8.98
2023-08-17T04:35:07.265Z,7.25
2023-08-17T04:36:10.515Z,10.38
2023-08-17T04:37:14.267Z,8.05
2023-08-17T04:38:17.440Z,8.95
2023-08-17T04:39:21.501Z,10.23
2023-08-17T04:40:24.378Z,9.25
2023-08-17T04:41:27.566Z,10.05
2023-08-17T04:42:31.360Z,6.97
2023-08-17T04:43:34.276Z,9.80
2023-08-17T04:44:37.213Z,9.93
2023-08-17T04:45:40.340Z,7.40
2023-08-17T04:46:43.396Z,7.07
2023-08-17T04:47:46.327Z,9.02
2023-08-17T04:48:51.454Z,12.65
2023-08-17T04:49:54.436Z,10.70
2023-08-17T04:50:57.372Z,8.95
2023-08-17T04:52:01.331Z,7.05
2023-08-17T04:53:04.460Z,12.88
2023-08-17T04:54:07.439Z,8.77
2023-08-17T04:55:10.913Z,15.65
2023-08-17T04:56:13.869Z,7.88
2023-08-17T04:57:16.915Z,10.80
2023-08-17T04:58:19.948Z,9.68
2023-08-17T04:59:23.545Z,6.43
2023-08-17T05:00:29.566Z,9.05
2023-08-17T05:01:33.878Z,6.72
2023-08-17T05:02:38.219Z,10.60
2023-08-17T05:03:42.247Z,10.40
2023-08-17T05:04:45.463Z,9.35
2023-08-17T05:05:48.353Z,10.48
2023-08-17T05:06:51.335Z,9.38
2023-08-17T05:07:54.688Z,6.10
2023-08-17T05:08:59.310Z,10.00
2023-08-17T05:10:02.497Z,5.03
2023-08-17T05:11:07.206Z,9.40
2023-08-17T05:12:10.163Z,8.35
2023-08-17T05:13:13.697Z,11.20
2023-08-17T05:14:17.134Z,6.90
2023-08-17T05:15:20.661Z,8.98
2023-08-17T05:16:24.119Z,6.78
2023-08-17T05:17:27.648Z,7.30
2023-08-17T05:18:32.433Z,8.40
2023-08-17T05:19:35.327Z,10.23
2023-08-17T05:20:38.833Z,6.07
2023-08-17T05:21:41.819Z,12.23
2023-08-17T05:22:45.301Z,6.38
2023-08-17T05:23:48.356Z,7.30
2023-08-17T05:24:51.340Z,9.07
2023-08-17T05:25:55.620Z,11.95
2023-08-17T05:26:59.317Z,6.78
2023-08-17T05:28:02.591Z,6.97
2023-08-17T05:29:05.729Z,8.68
2023-08-17T05:30:09.566Z,10.85
2023-08-17T05:31:12.543Z,11.57
2023-08-17T05:32:18.935Z,8.18
2023-08-17T05:33:22.554Z,10.98
2023-08-17T05:34:25.903Z,8.25
2023-08-17T05:35:29.047Z,9.25
2023-08-17T05:36:32.142Z,5.63
2023-08-17T05:37:34.996Z,8.82
2023-08-17T05:38:38.047Z,5.25
2023-08-17T05:39:42.437Z,7.25
2023-08-17T05:40:45.462Z,7.32
2023-08-17T05:41:48.341Z,11.57
2023-08-17T05:42:51.644Z,7.85
2023-08-17T05:43:54.638Z,7.72
2023-08-17T05:44:57.654Z,5.57
2023-08-17T05:46:01.039Z,5.25
2023-08-17T05:47:03.964Z,9.52
2023-08-17T05:48:08.309Z,11.30
2023-08-17T05:49:11.309Z,4.90
2023-08-17T05:50:14.206Z,5.10
2023-08-17T05:51:17.086Z,5.97
2023-08-17T05:52:20.185Z,6.28
2023-08-17T05:53:23.177Z,8.60
2023-08-17T05:54:26.113Z,10.27
2023-08-17T05:55:29.041Z,6.35
2023-08-17T05:56:31.965Z,10.13
2023-08-17T05:57:35.525Z,14.30
2023-08-17T05:58:38.430Z,9.75
2023-08-17T05:59:41.236Z,9.15
2023-08-17T06:00:44.248Z,9.60
2023-08-17T06:01:47.305Z,8.77
2023-08-17T06:02:53.183Z,13.43
2023-08-17T06:03:56.227Z,7.78
2023-08-17T06:04:59.311Z,10.02
2023-08-17T06:06:02.322Z,7.13
2023-08-17T06:07:05.418Z,6.65
2023-08-17T06:08:08.481Z,8.63
2023-08-17T06:09:11.399Z,9.90
2023-08-17T06:10:14.266Z,5.97
2023-08-17T06:11:17.209Z,7.80
2023-08-17T06:12:20.602Z,5.15
2023-08-17T06:13:23.610Z,7.95
2023-08-17T06:14:26.574Z,5.82
2023-08-17T06:15:29.423Z,4.60
2023-08-17T06:16:32.542Z,9.77
2023-08-17T06:17:35.624Z,6.18
2023-08-17T06:18:38.666Z,17.95
2023-08-17T06:19:41.515Z,5.18
2023-08-17T06:20:44.571Z,5.82
2023-08-17T06:21:47.440Z,7.00
2023-08-17T06:22:51.453Z,8.10
2023-08-17T06:23:54.651Z,10.18
2023-08-17T06:24:57.643Z,7.75
2023-08-17T06:26:00.741Z,9.60
2023-08-17T06:27:03.793Z,6.88
2023-08-17T06:28:07.691Z,8.10
2023-08-17T06:29:10.718Z,11.25
2023-08-17T06:30:14.323Z,6.55
2023-08-17T06:31:17.375Z,5.20
2023-08-17T06:32:21.218Z,7.47
2023-08-17T06:33:24.379Z,10.77
2023-08-17T06:34:27.259Z,6.32
2023-08-17T06:35:30.093Z,7.68
2023-08-17T06:36:33.969Z,8.73
2023-08-17T06:37:37.049Z,8.25
2023-08-17T06:38:39.912Z,6.38
2023-08-17T06:39:42.953Z,5.43
2023-08-17T06:40:47.169Z,10.05
2023-08-17T06:41:50.098Z,7.65
2023-08-17T06:42:53.883Z,6.25
2023-08-17T06:43:56.831Z,8.43
2023-08-17T06:44:59.838Z,6.38
2023-08-17T06:46:03.489Z,9.77
2023-08-17T06:47:06.425Z,9.60
2023-08-17T06:48:09.389Z,5.70
2023-08-17T06:49:14.052Z,12.10
2023-08-17T06:50:17.086Z,6.93
2023-08-17T06:51:20.046Z,9.77
2023-08-17T06:52:23.027Z,7.75
2023-08-17T06:53:25.907Z,8.88
2023-08-17T06:54:28.853Z,5.15
2023-08-17T06:55:31.977Z,3.83
2023-08-17T06:56:34.997Z,6.55
2023-08-17T06:57:38.072Z,6.85
2023-08-17T06:58:41.044Z,5.18
2023-08-17T06:59:47.577Z,7.70
2023-08-17T07:00:50.518Z,5.65
2023-08-17T07:01:53.489Z,4.10
2023-08-17T07:02:58.640Z,7.15
2023-08-17T07:04:03.806Z,6.72
2023-08-17T07:05:07.298Z,4.78
2023-08-17T07:06:10.949Z,5.38
2023-08-17T07:07:15.707Z,8.05
2023-08-17T07:08:18.625Z,6.28
2023-08-17T07:09:22.527Z,4.53
2023-08-17T07:10:25.489Z,4.30
2023-08-17T07:11:28.560Z,6.32
2023-08-17T07:12:31.373Z,6.28
2023-08-17T07:13:34.581Z,6.13
2023-08-17T07:14:38.463Z,5.47
2023-08-17T07:15:41.463Z,3.72
2023-08-17T07:16:44.532Z,5.35
2023-08-17T07:17:47.591Z,6.68
2023-08-17T07:18:50.547Z,6.20
2023-08-17T07:20:14.974Z,5.53
2023-08-17T07:21:16.513Z,6.15
2023-08-17T07:22:19.634Z,5.55
2023-08-17T07:23:22.589Z,6.68
2023-08-17T07:24:25.599Z,5.93
2023-08-17T07:25:28.490Z,5.40
2023-08-17T07:26:31.474Z,5.18
2023-08-17T07:27:34.624Z,5.28
2023-08-17T07:28:37.561Z,8.63
2023-08-17T07:29:40.471Z,6.80
2023-08-17T07:30:43.457Z,6.13
2023-08-17T07:31:46.551Z,4.25
2023-08-17T07:32:49.548Z,7.43
2023-08-17T07:33:52.515Z,6.53
2023-08-17T07:34:55.394Z,5.75
2023-08-17T07:35:59.794Z,5.32
2023-08-17T07:37:02.835Z,5.95
2023-08-17T07:38:09.264Z,7.55
2023-08-17T07:39:12.762Z,6.35
2023-08-17T07:40:15.829Z,5.70
2023-08-17T07:41:18.728Z,5.28
2023-08-17T07:42:21.626Z,5.10
2023-08-17T07:43:25.211Z,5.63
2023-08-17T07:44:29.898Z,5.55
2023-08-17T07:45:32.741Z,3.75
2023-08-17T07:46:35.706Z,4.13
2023-08-17T07:47:38.677Z,3.85
2023-08-17T07:48:42.246Z,5.55
2023-08-17T07:49:47.042Z,7.10
2023-08-17T07:50:51.889Z,5.13
2023-08-17T07:51:55.000Z,3.40
2023-08-17T07:52:57.926Z,4.80
2023-08-17T07:54:02.004Z,2.55
2023-08-17T07:55:05.300Z,2.08
2023-08-17T07:56:08.371Z,3.30
2023-08-17T07:57:11.265Z,5.40
2023-08-17T07:58:14.153Z,5.03
2023-08-17T07:59:17.184Z,4.95
2023-08-17T08:00:20.205Z,2.95
2023-08-17T08:01:23.096Z,4.13
2023-08-17T08:02:26.209Z,5.90
2023-08-17T08:03:29.159Z,4.25
2023-08-17T08:04:32.305Z,3.78
2023-08-17T08:05:35.294Z,4.03
2023-08-17T08:06:38.301Z,4.55
2023-08-17T08:07:41.287Z,4.82
2023-08-17T08:08:44.446Z,3.63
2023-08-17T08:09:47.423Z,4.25
2023-08-17T08:10:50.261Z,3.42
2023-08-17T08:11:53.376Z,7.25
2023-08-17T08:12:57.152Z,3.55
2023-08-17T08:14:00.239Z,5.05
2023-08-17T08:15:03.423Z,2.38
2023-08-17T08:16:07.656Z,6.57
2023-08-17T08:17:10.767Z,4.95
2023-08-17T08:18:13.832Z,5.10
2023-08-17T08:19:16.780Z,3.38
2023-08-17T08:20:19.723Z,2.80
2023-08-17T08:21:22.746Z,2.35
2023-08-17T08:22:25.664Z,3.05
2023-08-17T08:23:28.902Z,3.70
2023-08-17T08:24:38.276Z,2.05
2023-08-17T08:26:46.139Z,2.35
2023-08-17T08:27:49.098Z,4.25
2023-08-17T08:28:52.063Z,3.13
2023-08-17T08:29:55.005Z,1.75
2023-08-17T08:31:03.253Z,3.15
2023-08-17T08:32:06.203Z,3.08
2023-08-17T08:33:09.207Z,3.92
2023-08-17T08:34:12.216Z,4.60
2023-08-17T08:35:15.050Z,4.13
2023-08-17T08:36:17.970Z,2.15
2023-08-17T08:37:20.916Z,2.58
2023-08-17T08:38:23.822Z,4.72
2023-08-17T08:39:29.698Z,2.90
2023-08-17T08:40:33.465Z,3.20
2023-08-17T08:41:36.839Z,1.83
2023-08-17T08:42:39.911Z,4.35
2023-08-17T08:43:43.103Z,3.97
2023-08-17T08:44:46.913Z,4.88
2023-08-17T08:45:50.999Z,4.65
2023-08-17T08:46:54.732Z,3.53
2023-08-17T08:47:58.333Z,3.40
2023-08-17T08:49:01.338Z,4.28
2023-08-17T08:50:05.370Z,3.08
2023-08-17T08:51:10.792Z,3.17
2023-08-17T08:52:16.503Z,2.70
2023-08-17T08:53:19.748Z,3.33
2023-08-17T08:54:26.221Z,3.25
2023-08-17T08:55:31.091Z,2.60
2023-08-17T08:56:34.767Z,3.17
2023-08-17T08:57:37.983Z,3.38
2023-08-17T08:58:40.842Z,5.20
2023-08-17T08:59:47.496Z,2.95
2023-08-17T09:00:50.560Z,3.35
2023-08-17T09:01:53.689Z,2.33
2023-08-17T09:02:56.946Z,1.88
2023-08-17T09:04:02.828Z,2.47
2023-08-17T09:05:07.953Z,3.25
2023-08-17T09:06:11.326Z,1.75
2023-08-17T09:07:15.624Z,2.42
2023-08-17T09:08:29.147Z,4.13
2023-08-17T09:09:32.239Z,3.15
2023-08-17T09:10:38.864Z,3.13
2023-08-17T09:11:44.873Z,2.35
2023-08-17T09:12:50.146Z,2.95
2023-08-17T09:13:54.186Z,3.47
2023-08-17T09:14:57.567Z,2.65
2023-08-17T09:16:07.508Z,3.58
2023-08-17T09:17:11.245Z,2.17
2023-08-17T09:18:14.361Z,2.03
2023-08-17T09:19:17.498Z,3.58
2023-08-17T09:21:59.485Z,1.90
2023-08-17T09:23:04.272Z,1.42
2023-08-17T09:24:08.872Z,3.88
2023-08-17T09:25:12.055Z,5.38
2023-08-17T09:26:15.061Z,1.92
2023-08-17T09:27:18.285Z,4.35
2023-08-17T09:28:21.952Z,1.77
2023-08-17T09:29:24.933Z,3.35
2023-08-17T09:30:27.877Z,3.25
2023-08-17T09:31:33.461Z,3.30
2023-08-17T09:32:36.549Z,4.70
2023-08-17T09:34:49.059Z,2.75
2023-08-17T09:35:58.543Z,2.63
2023-08-17T09:37:07.416Z,3.15
2023-08-17T09:38:10.431Z,1.55
2023-08-17T09:39:14.960Z,2.13
2023-08-17T09:40:22.266Z,1.95
2023-08-17T09:41:27.750Z,3.08
2023-08-17T09:42:32.760Z,4.03
2023-08-17T09:43:35.784Z,4.93
2023-08-17T09:44:40.450Z,2.85
2023-08-17T09:45:46.138Z,2.10
2023-08-17T09:46:49.451Z,3.38
2023-08-17T09:47:52.612Z,3.58
2023-08-17T09:48:55.611Z,2.05
2023-08-17T09:49:58.590Z,3.92
2023-08-17T09:51:03.836Z,2.67
2023-08-17T09:52:06.878Z,0.90
2023-08-17T09:53:13.076Z,4.28
2023-08-17T09:54:25.641Z,3.03
2023-08-17T09:55:28.701Z,3.67
2023-08-17T09:56:31.616Z,2.65
2023-08-17T09:57:35.127Z,1.33
2023-08-17T09:58:40.902Z,1.30
2023-08-17T09:59:43.917Z,2.97
2023-08-17T10:00:51.846Z,2.45
2023-08-17T10:01:57.297Z,4.05
2023-08-17T10:03:00.690Z,4.55
2023-08-17T10:04:03.845Z,2.42
2023-08-17T10:05:07.413Z,2.28
2023-08-17T10:06:11.636Z,4.57
2023-08-17T10:07:14.801Z,1.50
2023-08-17T10:08:20.640Z,2.53
2023-08-17T10:09:28.760Z,2.47
2023-08-17T10:10:32.431Z,2.80
2023-08-17T10:11:35.468Z,4.18
2023-08-17T10:12:39.717Z,3.38
2023-08-17T10:13:50.151Z,2.38
2023-08-17T10:15:10.035Z,1.33
2023-08-17T10:16:30.078Z,1.85
2023-08-17T10:17:56.027Z,2.15
2023-08-17T10:19:09.513Z,4.35
2023-08-17T10:20:12.617Z,2.10
2023-08-17T10:21:19.794Z,1.98
2023-08-17T10:22:44.693Z,1.02
2023-08-17T10:23:48.921Z,3.72
2023-08-17T10:24:51.788Z,3.22
2023-08-17T10:25:55.239Z,1.58
2023-08-17T10:26:58.104Z,2.95
2023-08-17T10:28:05.220Z,1.05
2023-08-17T10:29:15.330Z,3.95
2023-08-17T10:30:20.052Z,3.35
2023-08-17T10:31:23.098Z,2.28
2023-08-17T10:32:26.297Z,2.90
2023-08-17T10:33:29.679Z,4.57
2023-08-17T10:34:32.617Z,2.47
2023-08-17T10:35:35.619Z,1.20
2023-08-17T10:36:38.463Z,2.03
2023-08-17T10:37:41.317Z,3.38
2023-08-17T10:38:44.401Z,1.08
2023-08-17T10:39:48.312Z,0.88
2023-08-17T10:41:17.802Z,3.38
2023-08-17T10:42:37.813Z,3.40
2023-08-17T10:44:59.392Z,1.23
2023-08-17T10:46:17.886Z,1.05
2023-08-17T10:47:21.967Z,1.30
2023-08-17T10:48:29.193Z,2.55
2023-08-17T10:49:32.614Z,2.78
2023-08-17T10:50:42.726Z,1.17
2023-08-17T10:52:03.754Z,2.03
2023-08-17T10:54:13.413Z,2.30
2023-08-17T10:55:16.553Z,2.85
2023-08-17T10:56:19.537Z,1.35
2023-08-17T10:57:34.428Z,1.75
2023-08-17T10:58:38.974Z,0.80
2023-08-17T10:59:44.935Z,1.80
2023-08-17T11:00:48.120Z,3.25
2023-08-17T11:01:51.138Z,1.23
2023-08-17T11:02:58.285Z,3.78
2023-08-17T11:04:19.779Z,3.28
2023-08-17T11:05:44.990Z,1.67
2023-08-17T11:06:48.073Z,2.10
2023-08-17T11:07:51.164Z,1.13
2023-08-17T11:08:59.276Z,1.33
2023-08-17T11:10:03.515Z,1.63
2023-08-17T11:11:07.705Z,1.25
2023-08-17T11:12:27.427Z,2.42
2023-08-17T11:13:32.470Z,3.15
2023-08-17T11:14:36.131Z,1.52
2023-08-17T11:15:44.529Z,1.73
2023-08-17T11:16:48.782Z,1.75
2023-08-17T11:17:51.885Z,1.20
2023-08-17T11:18:57.361Z,1.75
2023-08-17T11:20:00.573Z,2.55
2023-08-17T11:21:09.965Z,1.27
2023-08-17T11:22:13.209Z,1.25
2023-08-17T11:23:16.076Z,1.60
2023-08-17T11:24:19.493Z,2.65
2023-08-17T11:25:22.928Z,1.25
2023-08-17T11:26:25.960Z,1.30
2023-08-17T11:27:32.256Z,1.77
2023-08-17T11:28:42.819Z,2.63
2023-08-17T11:29:46.659Z,1.48
2023-08-17T11:31:00.229Z,3.55
2023-08-17T11:32:03.337Z,2.05
2023-08-17T11:33:06.465Z,2.83
2023-08-17T11:34:09.418Z,1.40
2023-08-17T11:35:12.903Z,2.08
2023-08-17T11:36:15.978Z,0.80
2023-08-17T11:37:19.021Z,2.28
2023-08-17T11:38:22.058Z,1.70
2023-08-17T11:39:25.077Z,4.35
2023-08-17T11:40:28.301Z,3.90
2023-08-17T11:41:31.236Z,1.38
2023-08-17T11:42:34.119Z,2.58
2023-08-17T11:43:37.102Z,1.85
2023-08-17T11:44:40.068Z,3.25
2023-08-17T11:45:43.372Z,2.72
2023-08-17T11:46:46.815Z,1.17
2023-08-17T11:47:50.544Z,0.88
2023-08-17T11:48:55.736Z,1.60
2023-08-17T11:50:14.619Z,1.83
2023-08-17T11:51:32.503Z,2.70
2023-08-17T11:52:35.573Z,1.10
2023-08-17T11:53:40.867Z,0.98
2023-08-17T11:54:44.406Z,1.95
2023-08-17T11:55:47.342Z,0.80
2023-08-17T11:56:50.297Z,0.82
2023-08-17T11:57:53.376Z,0.75
2023-08-17T11:58:56.403Z,1.85
2023-08-17T11:59:59.940Z,2.22
2023-08-17T12:01:02.958Z,2.25
2023-08-17T12:02:05.925Z,1.42
2023-08-17T12:03:09.591Z,1.42
2023-08-17T12:04:12.846Z,2.10
2023-08-17T12:05:15.908Z,1.52
2023-08-17T12:06:18.917Z,3.53
2023-08-17T12:07:23.456Z,1.55
2023-08-17T12:08:26.309Z,1.33
2023-08-17T12:09:29.416Z,0.90
2023-08-17T12:10:35.645Z,2.05
2023-08-17T12:11:41.824Z,1.65
2023-08-17T12:12:44.812Z,1.23
2023-08-17T12:13:54.684Z,0.75
2023-08-17T12:14:59.109Z,1.38
2023-08-17T12:16:02.106Z,1.30
2023-08-17T12:17:05.233Z,2.35
2023-08-17T12:18:08.403Z,1.27
2023-08-17T12:19:11.391Z,1.20
2023-08-17T12:20:18.672Z,1.73
2023-08-17T12:21:23.424Z,1.42
2023-08-17T12:22:27.883Z,1.30
2023-08-17T12:23:31.146Z,1.48
2023-08-17T12:24:34.006Z,1.02
2023-08-17T12:25:36.980Z,1.38
2023-08-17T12:26:44.075Z,1.95
2023-08-17T12:27:48.888Z,2.20
2023-08-17T12:28:51.932Z,1.38
2023-08-17T12:29:54.874Z,2.90
2023-08-17T12:31:05.423Z,0.70
2023-08-17T12:32:08.742Z,2.35
2023-08-17T12:33:11.782Z,1.48
2023-08-17T12:34:14.735Z,2.40
2023-08-17T12:35:17.696Z,2.17
2023-08-17T12:36:22.008Z,1.23
2023-08-17T12:37:24.986Z,1.98
2023-08-17T12:38:27.908Z,1.98
2023-08-17T12:39:31.065Z,1.67
2023-08-17T12:40:34.449Z,1.83
2023-08-17T12:41:37.353Z,1.60
2023-08-17T12:42:40.304Z,1.63
2023-08-17T12:43:43.182Z,2.85
2023-08-17T12:44:46.173Z,1.25
2023-08-17T12:45:49.370Z,1.85
2023-08-17T12:46:52.286Z,2.65
2023-08-17T12:47:55.452Z,1.23
2023-08-17T12:48:58.431Z,1.13
2023-08-17T12:50:02.279Z,1.38
2023-08-17T12:51:05.712Z,2.35
2023-08-17T12:52:08.782Z,1.65
2023-08-17T12:53:11.729Z,3.25
2023-08-17T12:54:14.685Z,2.08
2023-08-17T12:55:17.704Z,1.75
2023-08-17T12:56:20.726Z,2.22
2023-08-17T12:57:23.731Z,2.88
2023-08-17T12:58:26.963Z,1.40
2023-08-17T12:59:29.960Z,1.40
2023-08-17T13:00:32.958Z,2.20
2023-08-17T13:01:36.035Z,2.35
2023-08-17T13:02:39.045Z,1.90
2023-08-17T13:03:42.052Z,4.10
2023-08-17T13:04:45.955Z,1.27
2023-08-17T13:05:48.828Z,2.45
2023-08-17T13:06:52.641Z,1.60
2023-08-17T13:07:55.680Z,1.63
2023-08-17T13:08:58.894Z,2.65
2023-08-17T13:10:01.921Z,1.38
2023-08-17T13:11:04.980Z,1.77
2023-08-17T13:12:08.099Z,5.70
2023-08-17T13:13:11.165Z,4.22
2023-08-17T13:14:17.552Z,1.20
2023-08-17T13:15:20.629Z,1.48
2023-08-17T13:16:24.756Z,2.08
2023-08-17T13:17:27.820Z,1.67
2023-08-17T13:18:30.804Z,1.20
2023-08-17T13:19:33.686Z,1.98
2023-08-17T13:20:37.413Z,1.95
2023-08-17T13:21:40.358Z,3.28
2023-08-17T13:22:43.235Z,1.55
2023-08-17T13:23:46.780Z,1.77
2023-08-17T13:24:49.676Z,1.88
2023-08-17T13:25:53.019Z,1.63
2023-08-17T13:26:56.126Z,1.75
2023-08-17T13:27:58.995Z,1.27
2023-08-17T13:29:01.936Z,1.70
2023-08-17T13:30:08.322Z,1.83
2023-08-17T13:31:23.924Z,2.70
2023-08-17T13:32:27.985Z,3.60
2023-08-17T13:33:34.106Z,1.98
2023-08-17T13:34:37.557Z,1.30
2023-08-17T13:35:40.549Z,1.58
2023-08-17T13:36:43.616Z,1.45
2023-08-17T13:37:46.600Z,2.53
2023-08-17T13:38:49.579Z,1.30
2023-08-17T13:39:52.630Z,1.80
2023-08-17T13:40:55.496Z,3.35
2023-08-17T13:41:58.430Z,1.65
2023-08-17T13:43:02.089Z,1.58
2023-08-17T13:44:05.340Z,1.58
2023-08-17T13:45:08.858Z,1.35
2023-08-17T13:46:11.978Z,2.83
2023-08-17T13:47:14.911Z,1.92
2023-08-17T13:48:17.825Z,1.52
2023-08-17T13:49:20.732Z,1.92
2023-08-17T13:50:23.696Z,2.72
2023-08-17T13:51:26.629Z,2.45
2023-08-17T13:52:29.848Z,2.03
2023-08-17T13:53:33.016Z,1.35
2023-08-17T13:54:37.561Z,3.13
2023-08-17T13:55:41.452Z,1.42
2023-08-17T13:56:44.716Z,1.13
2023-08-17T13:57:48.043Z,2.55
2023-08-17T13:58:51.569Z,1.75
2023-08-17T13:59:54.578Z,1.48
2023-08-17T14:00:57.475Z,2.65
2023-08-17T14:02:00.485Z,1.75
2023-08-17T14:03:03.764Z,1.88
2023-08-17T14:04:12.992Z,2.25
2023-08-17T14:05:16.132Z,1.47
2023-08-17T14:06:19.018Z,3.65
2023-08-17T14:07:21.926Z,2.28
2023-08-17T14:08:24.840Z,2.97
2023-08-17T14:09:31.204Z,2.17
2023-08-17T14:10:39.767Z,4.05
2023-08-17T14:11:43.763Z,1.65
2023-08-17T14:12:46.706Z,2.45
2023-08-17T14:13:49.572Z,1.65
2023-08-17T14:14:52.634Z,1.48
2023-08-17T14:15:57.902Z,2.40
2023-08-17T14:17:00.820Z,2.28
2023-08-17T14:18:05.293Z,2.20